Time;durP1;ratioP1;P1;durP2;ratioP2;P2;SDS_P1;SDS_P2;PMS_P1;PMS_P2;Temp;Humidity;BMP_temperature;BMP_pressure;BME280_temperature;BME280_humidity;BME280_pressure;Samples;Min_cycle;Max_cycle;Signal;HPM_P1;HPM_P2
2022/07/18 00:03:29;;;;;;;6.53;3.38;;;21.00;80.60;;;;;;10440476;28;21024;-62
2022/07/18 00:08:30;;;;;;;4.72;2.88;;;21.00;80.70;;;;;;10440217;28;20033;-61
2022/07/18 00:13:30;;;;;;;3.78;2.67;;;21.00;80.70;;;;;;10440464;28;20022;-62
2022/07/18 00:18:31;;;;;;;5.93;3.05;;;21.00;80.80;;;;;;10441426;28;20738;-61
2022/07/18 00:23:32;;;;;;;4.22;2.90;;;20.90;80.80;;;;;;10440697;28;20032;-61
2022/07/18 00:28:32;;;;;;;6.30;3.17;;;20.90;80.80;;;;;;10439035;28;20032;-61
2022/07/18 00:33:33;;;;;;;7.68;2.97;;;20.90;80.90;;;;;;10440645;28;20070;-61
2022/07/18 00:38:34;;;;;;;6.15;3.38;;;20.80;80.90;;;;;;10444728;28;20036;-61
2022/07/18 00:43:35;;;;;;;6.72;3.22;;;20.80;80.90;;;;;;10432577;28;20025;-62
2022/07/18 00:48:35;;;;;;;5.15;3.15;;;20.70;80.90;;;;;;10448204;28;20452;-61
2022/07/18 00:53:36;;;;;;;5.72;3.00;;;20.70;80.90;;;;;;10448157;28;20049;-61
2022/07/18 00:58:37;;;;;;;5.30;3.25;;;20.70;81.00;;;;;;10448115;28;20056;-61
2022/07/18 01:03:38;;;;;;;6.70;3.10;;;20.70;81.00;;;;;;10446999;28;20488;-61
2022/07/18 01:08:42;;;;;;;5.78;3.28;;;20.70;81.10;;;;;;10446886;28;20041;-62
2022/07/18 01:13:43;;;;;;;5.28;3.10;;;20.60;81.10;;;;;;10445325;28;20049;-61
2022/07/18 01:18:49;;;;;;;5.43;3.28;;;20.60;81.20;;;;;;10447330;28;20131;-62
2022/07/18 01:23:50;;;;;;;5.68;3.50;;;20.60;81.20;;;;;;10446651;28;20391;-61
2022/07/18 01:28:51;;;;;;;5.13;3.03;;;20.50;81.10;;;;;;10430482;28;20032;-62
2022/07/18 01:33:54;;;;;;;7.85;3.22;;;20.50;81.20;;;;;;10428929;28;20029;-61
2022/07/18 01:38:55;;;;;;;4.88;3.40;;;20.50;81.30;;;;;;10446841;28;20040;-62
2022/07/18 01:43:55;;;;;;;6.13;3.35;;;20.50;81.30;;;;;;10446507;28;20033;-62
2022/07/18 01:48:56;;;;;;;4.78;3.08;;;20.40;81.30;;;;;;10446373;28;20029;-61
2022/07/18 01:54:01;;;;;;;6.97;3.70;;;20.40;81.30;;;;;;10445582;28;20071;-62
2022/07/18 01:59:02;;;;;;;5.47;3.22;;;20.40;81.30;;;;;;10446641;28;20033;-62
2022/07/18 02:04:03;;;;;;;5.10;3.25;;;20.30;81.30;;;;;;10445136;28;20086;-61
2022/07/18 02:09:06;;;;;;;6.20;3.15;;;20.30;81.30;;;;;;10445269;28;20083;-61
2022/07/18 02:14:06;;;;;;;6.10;3.22;;;20.30;81.30;;;;;;10445068;28;20060;-62
2022/07/18 02:19:07;;;;;;;6.78;3.60;;;20.20;81.20;;;;;;10445129;28;20115;-62
2022/07/18 02:24:08;;;;;;;5.65;3.30;;;20.20;81.20;;;;;;10445231;28;20043;-61
2022/07/18 02:29:09;;;;;;;5.93;3.40;;;20.20;81.30;;;;;;10444724;28;20032;-61
2022/07/18 02:34:10;;;;;;;6.03;3.70;;;20.20;81.30;;;;;;10443979;28;20028;-62
2022/07/18 02:39:11;;;;;;;5.38;3.35;;;20.20;81.30;;;;;;10444519;28;20049;-62
2022/07/18 02:44:11;;;;;;;6.00;3.95;;;20.10;81.20;;;;;;10443272;28;20391;-61
2022/07/18 02:49:26;;;;;;;7.32;3.80;;;20.10;81.30;;;;;;10443741;28;20029;-62
2022/07/18 02:54:28;;;;;;;7.30;4.03;;;20.10;81.30;;;;;;10441933;28;20064;-62
2022/07/18 02:59:29;;;;;;;7.57;3.50;;;20.00;81.20;;;;;;10443014;28;20187;-61
2022/07/18 03:04:30;;;;;;;6.25;3.90;;;20.00;81.20;;;;;;10442556;28;20078;-61
2022/07/18 03:09:31;;;;;;;6.85;3.42;;;20.00;81.30;;;;;;10442243;28;20380;-62
2022/07/18 03:14:33;;;;;;;7.55;4.03;;;20.00;81.30;;;;;;10441036;28;20021;-61
2022/07/18 03:19:34;;;;;;;6.32;3.90;;;20.00;81.30;;;;;;10442202;28;20186;-61
2022/07/18 03:24:34;;;;;;;6.72;3.83;;;19.90;81.20;;;;;;10444455;28;20025;-62
2022/07/18 03:29:35;;;;;;;6.90;3.88;;;19.90;81.30;;;;;;10442704;28;20036;-61
2022/07/18 03:34:36;;;;;;;6.57;4.03;;;19.90;81.30;;;;;;10438618;28;20021;-61
2022/07/18 03:39:37;;;;;;;8.05;4.28;;;19.90;81.30;;;;;;10441626;28;20388;-62
2022/07/18 03:44:37;;;;;;;7.63;3.92;;;19.90;81.30;;;;;;10439363;28;20119;-61
2022/07/18 03:49:38;;;;;;;6.95;3.75;;;19.90;81.30;;;;;;10441271;28;20668;-62
2022/07/18 03:54:39;;;;;;;7.07;4.18;;;19.80;81.20;;;;;;10439635;28;20056;-61
2022/07/18 03:59:39;;;;;;;7.38;3.90;;;19.80;81.80;;;;;;10390873;28;20366;-61
2022/07/18 04:04:40;;;;;;;6.82;3.97;;;19.80;81.20;;;;;;10352248;28;20314;-61
2022/07/18 04:09:40;;;;;;;7.63;3.90;;;19.70;81.80;;;;;;10360452;28;20105;-62
2022/07/18 04:14:41;;;;;;;6.55;3.75;;;19.70;81.10;;;;;;10362541;28;20494;-61
2022/07/18 04:19:42;;;;;;;8.77;3.90;;;19.70;81.10;;;;;;10370544;28;20045;-63
2022/07/18 04:24:42;;;;;;;7.80;3.63;;;19.70;81.10;;;;;;10349792;28;20288;-62
2022/07/18 04:29:43;;;;;;;7.00;3.90;;;19.70;81.10;;;;;;10371468;28;20029;-62
2022/07/18 04:34:44;;;;;;;6.18;4.13;;;19.70;81.10;;;;;;10371543;28;20028;-62
2022/07/18 04:39:45;;;;;;;6.82;3.40;;;19.70;81.10;;;;;;10367183;28;20041;-62
2022/07/18 04:44:45;;;;;;;5.15;3.60;;;19.70;81.10;;;;;;10361145;28;20450;-62
2022/07/18 04:49:46;;;;;;;8.15;4.05;;;19.60;81.00;;;;;;10360684;28;20040;-62
2022/07/18 04:54:47;;;;;;;6.95;3.45;;;19.60;81.00;;;;;;10367235;28;20040;-62
2022/07/18 04:59:48;;;;;;;5.80;3.70;;;19.70;81.00;;;;;;10343815;28;20167;-62
2022/07/18 05:04:48;;;;;;;5.97;3.00;;;19.60;80.90;;;;;;10340720;28;20029;-62
2022/07/18 05:09:49;;;;;;;6.15;3.55;;;19.60;80.80;;;;;;10357383;28;20181;-63
2022/07/18 05:14:50;;;;;;;8.25;3.55;;;19.60;80.70;;;;;;10361731;28;20037;-62
2022/07/18 05:19:51;;;;;;;5.85;3.10;;;19.70;80.70;;;;;;10360549;28;20041;-62
2022/07/18 05:24:52;;;;;;;5.53;3.13;;;19.60;80.60;;;;;;10358007;28;20086;-62
2022/07/18 05:29:52;;;;;;;4.75;3.03;;;19.60;80.60;;;;;;10357470;28;20072;-61
2022/07/18 05:34:53;;;;;;;5.53;3.05;;;19.40;80.40;;;;;;10361608;28;20031;-61
2022/07/18 05:39:54;;;;;;;6.80;3.30;;;19.60;80.50;;;;;;10360753;28;20444;-61
2022/07/18 05:44:55;;;;;;;4.82;3.17;;;19.70;80.40;;;;;;10357584;28;20017;-62
2022/07/18 05:49:56;;;;;;;6.63;3.15;;;19.60;80.30;;;;;;10339887;28;20492;-61
2022/07/18 05:54:56;;;;;;;6.35;3.10;;;19.60;80.20;;;;;;10352307;28;20056;-61
2022/07/18 05:59:57;;;;;;;5.40;3.50;;;19.60;80.20;;;;;;10337411;28;20033;-61
2022/07/18 06:04:59;;;;;;;5.78;3.13;;;19.70;80.10;;;;;;10357817;28;20361;-61
2022/07/18 06:10:00;;;;;;;4.10;2.60;;;19.70;80.10;;;;;;10355319;28;20210;-61
2022/07/18 06:15:01;;;;;;;6.25;3.28;;;19.70;80.00;;;;;;10356644;28;20033;-62
2022/07/18 06:20:05;;;;;;;4.50;2.95;;;19.70;80.00;;;;;;10339549;28;20041;-62
2022/07/18 06:25:06;;;;;;;5.05;3.17;;;19.70;80.00;;;;;;10362947;28;20534;-61
2022/07/18 06:30:09;;;;;;;4.50;2.85;;;19.70;79.90;;;;;;10366082;28;20093;-60
2022/07/18 06:35:10;;;;;;;5.18;3.05;;;19.70;79.90;;;;;;10369692;28;20148;-65
2022/07/18 06:40:11;;;;;;;7.68;3.90;;;19.70;79.90;;;;;;10363356;28;20400;-61
2022/07/18 06:45:12;;;;;;;4.55;3.30;;;19.70;79.90;;;;;;10364604;28;20524;-62
2022/07/18 06:50:13;;;;;;;5.68;2.83;;;19.80;79.90;;;;;;10365320;28;20632;-61
2022/07/18 06:55:14;;;;;;;6.28;3.22;;;19.80;79.80;;;;;;10363481;28;20490;-61
2022/07/18 07:00:15;;;;;;;4.28;2.80;;;19.80;79.80;;;;;;10358146;28;20592;-62
2022/07/18 07:05:17;;;;;;;4.68;2.47;;;19.80;79.70;;;;;;10351118;28;20136;-61
2022/07/18 07:10:18;;;;;;;4.65;2.78;;;19.90;79.60;;;;;;10349856;28;20037;-66
2022/07/18 07:15:21;;;;;;;4.80;2.30;;;19.90;79.60;;;;;;10358629;28;20218;-63
2022/07/18 07:20:22;;;;;;;4.93;2.70;;;19.90;79.50;;;;;;10355132;28;20029;-61
2022/07/18 07:25:25;;;;;;;5.97;3.13;;;20.00;79.60;;;;;;10360560;28;20041;-62
2022/07/18 07:30:26;;;;;;;5.00;2.70;;;20.00;79.50;;;;;;10375465;28;20248;-61
2022/07/18 07:35:27;;;;;;;5.82;2.97;;;20.00;79.40;;;;;;10383134;28;20055;-65
2022/07/18 07:40:29;;;;;;;5.72;2.90;;;20.00;79.50;;;;;;10369703;28;20517;-65
2022/07/18 07:45:30;;;;;;;12.38;2.88;;;20.00;79.60;;;;;;10370313;28;20029;-68
2022/07/18 07:50:31;;;;;;;4.47;2.45;;;20.10;79.60;;;;;;10388739;28;20558;-68
2022/07/18 07:55:31;;;;;;;3.05;2.28;;;20.20;79.70;;;;;;10379388;28;20641;-69
2022/07/18 08:00:35;;;;;;;4.80;2.30;;;20.30;79.50;;;;;;10382914;28;20029;-68
2022/07/18 08:05:46;;;;;;;4.70;2.20;;;20.40;79.40;;;;;;10376434;28;20052;-67
2022/07/18 08:10:47;;;;;;;6.60;2.17;;;20.40;78.70;;;;;;10378928;28;20033;-64
2022/07/18 08:15:48;;;;;;;5.97;2.30;;;20.50;78.60;;;;;;10376720;28;20159;-64
2022/07/18 08:20:49;;;;;;;7.03;2.15;;;20.60;78.30;;;;;;10366385;28;20052;-67
2022/07/18 08:25:49;;;;;;;4.13;2.45;;;20.80;77.90;;;;;;10371426;28;20037;-67
2022/07/18 08:30:50;;;;;;;8.18;2.60;;;20.90;78.00;;;;;;10371629;28;20032;-69
2022/07/18 08:35:51;;;;;;;6.40;2.15;;;21.00;77.60;;;;;;10379993;28;20153;-68
2022/07/18 08:40:53;;;;;;;6.32;3.08;;;21.20;77.10;;;;;;10368885;28;20047;-63
2022/07/18 08:46:04;;;;;;;3.47;2.08;;;21.30;76.90;;;;;;10340200;28;20033;-66
2022/07/18 08:51:05;;;;;;;5.95;2.08;;;21.60;76.70;;;;;;10351374;28;20038;-66
2022/07/18 08:56:06;;;;;;;7.25;2.17;;;21.80;76.30;;;;;;10356231;28;20300;-61
2022/07/18 09:01:07;;;;;;;8.98;2.10;;;21.80;76.20;;;;;;10368209;28;20404;-64
2022/07/18 09:06:13;;;;;;;6.38;1.88;;;21.90;76.20;;;;;;10369308;28;20120;-62
2022/07/18 09:11:13;;;;;;;5.97;2.08;;;22.00;75.80;;;;;;10366607;28;20467;-64
2022/07/18 09:16:15;;;;;;;6.40;1.70;;;22.20;75.40;;;;;;10367022;28;20029;-63
2022/07/18 09:21:20;;;;;;;5.60;1.60;;;22.30;74.80;;;;;;10361868;28;20040;-62
2022/07/18 09:26:42;;;;;;;6.30;2.10;;;22.40;73.70;;;;;;10360434;28;20032;-63
2022/07/18 09:31:50;;;;;;;6.65;1.80;;;22.50;73.10;;;;;;10359505;28;20258;-62
2022/07/18 09:36:55;;;;;;;7.93;1.98;;;22.80;72.50;;;;;;10360394;28;20427;-62
2022/07/18 09:42:16;;;;;;;5.00;1.90;;;23.00;72.00;;;;;;10365741;28;20040;-64
2022/07/18 09:47:18;;;;;;;6.32;1.85;;;23.10;71.70;;;;;;10357990;28;20585;-62
2022/07/18 09:52:19;;;;;;;5.07;1.90;;;23.20;71.80;;;;;;10356928;28;20339;-63
2022/07/18 09:57:25;;;;;;;6.53;1.98;;;23.40;71.60;;;;;;10358352;28;20468;-62
2022/07/18 10:02:25;;;;;;;4.10;2.03;;;23.60;70.70;;;;;;10365965;28;20497;-61
2022/07/18 10:07:28;;;;;;;4.25;1.75;;;23.60;69.90;;;;;;10363413;28;20325;-63
2022/07/18 10:12:30;;;;;;;4.05;2.00;;;23.70;69.80;;;;;;10365582;28;20562;-63
2022/07/18 10:17:31;;;;;;;4.38;1.92;;;23.90;70.10;;;;;;10358433;28;20044;-62
2022/07/18 10:22:43;;;;;;;5.07;1.63;;;24.10;69.20;;;;;;10358654;28;20086;-61
2022/07/18 10:27:49;;;;;;;2.42;1.60;;;24.20;68.30;;;;;;10362060;28;20037;-61
2022/07/18 10:32:50;;;;;;;5.05;1.90;;;24.30;67.70;;;;;;10359350;28;20423;-62
2022/07/18 10:38:18;;;;;;;6.90;2.00;;;24.50;68.50;;;;;;10364052;28;20032;-62
2022/07/18 10:43:31;;;;;;;5.50;2.40;;;24.70;66.90;;;;;;10367212;28;20040;-65
2022/07/18 10:48:37;;;;;;;4.18;1.85;;;24.90;66.80;;;;;;10364601;28;20044;-61
2022/07/18 10:53:57;;;;;;;6.30;2.05;;;24.90;66.40;;;;;;10361094;28;20049;-61
2022/07/18 10:58:59;;;;;;;4.32;2.10;;;25.10;64.30;;;;;;10374334;28;20783;-60
2022/07/18 11:04:32;;;;;;;6.07;2.30;;;25.10;65.30;;;;;;10376938;28;20060;-61
2022/07/18 11:09:40;;;;;;;3.67;2.13;;;25.00;63.00;;;;;;10374681;28;20021;-61
2022/07/18 11:15:00;;;;;;;5.60;2.42;;;25.20;64.60;;;;;;10375865;28;20025;-61
2022/07/18 11:20:24;;;;;;;5.45;2.50;;;25.50;62.80;;;;;;10359876;28;20037;-61
2022/07/18 11:25:27;;;;;;;5.80;2.28;;;25.80;63.10;;;;;;10373976;28;20196;-61
2022/07/18 11:30:28;;;;;;;5.70;2.80;;;26.00;64.60;;;;;;10380541;28;20163;-62
2022/07/18 11:35:29;;;;;;;8.25;2.67;;;26.10;63.50;;;;;;10399672;28;20033;-63
2022/07/18 11:40:30;;;;;;;4.88;2.33;;;26.10;63.20;;;;;;10371424;28;20107;-63
2022/07/18 11:45:31;;;;;;;8.32;2.30;;;26.30;62.60;;;;;;10368592;28;20115;-62
2022/07/18 11:50:36;;;;;;;4.47;2.58;;;26.40;62.70;;;;;;10337128;28;20255;-63
2022/07/18 11:55:38;;;;;;;4.53;2.03;;;26.10;62.10;;;;;;10348494;28;20432;-62
2022/07/18 12:00:40;;;;;;;5.50;2.38;;;26.10;63.30;;;;;;10356487;28;20578;-63
2022/07/18 12:05:48;;;;;;;4.40;2.38;;;25.90;63.70;;;;;;10357058;28;20281;-62
2022/07/18 12:11:25;;;;;;;4.82;2.28;;;25.60;64.20;;;;;;10352856;28;20364;-62
2022/07/18 12:16:32;;;;;;;4.13;2.22;;;25.40;63.90;;;;;;10356548;28;20086;-61
2022/07/18 12:22:04;;;;;;;2.75;2.10;;;25.30;65.00;;;;;;10352831;28;20552;-62
2022/07/18 12:27:24;;;;;;;4.03;1.73;;;25.30;64.40;;;;;;10353061;28;20429;-62
2022/07/18 12:32:26;;;;;;;3.97;2.30;;;25.20;65.10;;;;;;10356347;28;20028;-61
2022/07/18 12:37:31;;;;;;;3.40;1.98;;;25.10;65.70;;;;;;10363448;28;20033;-62
2022/07/18 12:42:40;;;;;;;2.92;1.77;;;25.10;65.80;;;;;;10356444;28;20312;-62
2022/07/18 12:47:41;;;;;;;3.33;2.00;;;24.70;65.30;;;;;;10363526;28;20137;-62
2022/07/18 12:52:42;;;;;;;3.55;1.95;;;25.10;66.00;;;;;;10368196;28;20552;-62
2022/07/18 12:57:43;;;;;;;4.68;2.03;;;25.30;66.10;;;;;;10368963;28;20025;-62
2022/07/18 13:02:45;;;;;;;3.20;1.95;;;25.20;66.30;;;;;;10372760;28;20021;-62
2022/07/18 13:07:45;;;;;;;3.13;1.80;;;25.20;66.40;;;;;;10371572;28;20689;-61
2022/07/18 13:12:46;;;;;;;3.13;1.85;;;25.30;66.40;;;;;;10371650;28;20040;-62
2022/07/18 13:17:51;;;;;;;3.70;1.85;;;25.30;66.40;;;;;;10366511;28;20447;-62
2022/07/18 13:22:52;;;;;;;2.67;1.90;;;25.30;66.40;;;;;;10364769;28;20037;-62
2022/07/18 13:27:53;;;;;;;4.82;2.05;;;25.40;66.40;;;;;;10371474;28;20836;-61
2022/07/18 13:32:54;;;;;;;2.42;1.60;;;25.50;66.20;;;;;;10368654;28;20131;-61
2022/07/18 13:37:55;;;;;;;2.38;1.92;;;25.60;66.20;;;;;;10355486;28;20532;-61
2022/07/18 13:42:56;;;;;;;3.95;2.00;;;25.60;66.30;;;;;;10340516;28;20034;-61
2022/07/18 13:47:57;;;;;;;5.35;1.98;;;25.60;66.30;;;;;;10363255;28;20069;-61
2022/07/18 13:52:57;;;;;;;2.85;1.80;;;25.70;66.30;;;;;;10363895;28;20060;-62
2022/07/18 13:57:58;;;;;;;2.45;1.75;;;25.90;66.30;;;;;;10363529;28;20041;-62
2022/07/18 14:02:59;;;;;;;3.67;1.73;;;26.00;66.40;;;;;;10360612;28;20216;-61
2022/07/18 14:08:00;;;;;;;2.50;1.80;;;26.10;66.40;;;;;;10337189;28;20443;-62
2022/07/18 14:13:02;;;;;;;3.00;1.70;;;26.20;66.50;;;;;;10361144;28;20065;-61
2022/07/18 14:18:04;;;;;;;3.13;1.90;;;26.30;66.60;;;;;;10353157;28;20228;-61
2022/07/18 14:23:06;;;;;;;4.20;2.10;;;26.40;66.50;;;;;;10360208;28;20033;-61
2022/07/18 14:28:07;;;;;;;2.70;1.70;;;26.50;66.40;;;;;;10358191;28;20262;-61
2022/07/18 14:33:07;;;;;;;4.10;1.98;;;26.60;66.60;;;;;;10354122;28;20025;-61
2022/07/18 14:38:08;;;;;;;2.72;1.73;;;26.60;66.60;;;;;;10354760;28;20040;-61
2022/07/18 14:43:09;;;;;;;2.70;1.70;;;26.60;66.80;;;;;;10349994;28;20581;-62
2022/07/18 14:48:10;;;;;;;2.83;1.85;;;26.70;66.90;;;;;;10358196;28;20033;-61
2022/07/18 14:53:10;;;;;;;2.97;1.75;;;26.80;66.90;;;;;;10347327;28;20937;-62
2022/07/18 14:58:11;;;;;;;3.72;1.52;;;26.90;66.80;;;;;;10371317;28;20134;-61
2022/07/18 15:03:12;;;;;;;2.05;1.60;;;27.00;66.70;;;;;;10372571;28;20036;-61
2022/07/18 15:08:13;;;;;;;2.47;1.70;;;27.10;66.70;;;;;;10367255;28;20029;-62
2022/07/18 15:13:16;;;;;;;3.28;2.08;;;27.20;66.80;;;;;;10347505;28;20036;-61
2022/07/18 15:18:17;;;;;;;3.28;1.77;;;27.30;66.80;;;;;;10364041;28;20042;-63
2022/07/18 15:23:17;;;;;;;2.70;1.70;;;27.40;66.80;;;;;;10364890;28;20053;-62
2022/07/18 15:28:19;;;;;;;2.63;1.65;;;27.50;66.70;;;;;;10366218;28;20621;-64
2022/07/18 15:33:21;;;;;;;3.97;1.83;;;27.60;66.70;;;;;;10372424;28;20022;-62
2022/07/18 15:38:21;;;;;;;3.83;1.83;;;27.70;66.70;;;;;;10374702;28;20358;-61
2022/07/18 15:43:22;;;;;;;4.38;2.10;;;27.80;66.90;;;;;;10366492;28;20098;-63
2022/07/18 15:48:23;;;;;;;4.13;1.83;;;27.80;66.90;;;;;;10367617;28;20067;-65
2022/07/18 15:53:24;;;;;;;4.38;2.20;;;27.90;67.00;;;;;;10356860;28;20049;-65
2022/07/18 15:58:25;;;;;;;4.93;2.70;;;28.00;66.90;;;;;;10367329;28;20045;-65
2022/07/18 16:03:26;;;;;;;4.38;2.00;;;28.00;67.00;;;;;;10371136;28;20204;-62
2022/07/18 16:08:27;;;;;;;4.65;2.40;;;28.00;67.30;;;;;;10372016;28;20140;-62
2022/07/18 16:13:28;;;;;;;4.85;2.20;;;27.90;67.50;;;;;;10376190;28;20029;-63
2022/07/18 16:18:35;;;;;;;4.18;2.22;;;27.90;67.60;;;;;;10377927;28;20049;-64
2022/07/18 16:23:36;;;;;;;4.40;2.27;;;27.90;67.80;;;;;;10361392;28;20712;-64
2022/07/18 16:28:37;;;;;;;4.00;2.60;;;27.90;68.00;;;;;;10386130;28;20040;-62
2022/07/18 16:33:37;;;;;;;4.30;1.75;;;27.80;68.20;;;;;;10377615;28;20053;-63
2022/07/18 16:38:38;;;;;;;3.08;2.08;;;27.80;68.40;;;;;;10376408;28;20050;-61
2022/07/18 16:43:39;;;;;;;3.42;2.13;;;27.80;68.50;;;;;;10373986;28;20063;-61
2022/07/18 16:48:40;;;;;;;3.08;1.90;;;27.80;68.60;;;;;;10360250;28;20036;-64
2022/07/18 16:53:41;;;;;;;3.60;2.13;;;27.80;68.80;;;;;;10378327;28;20354;-62
2022/07/18 16:58:43;;;;;;;3.70;1.98;;;27.70;69.00;;;;;;10379251;28;20122;-62
2022/07/18 17:03:44;;;;;;;3.72;2.35;;;27.70;69.20;;;;;;10373218;28;20040;-62
2022/07/18 17:08:44;;;;;;;6.60;2.50;;;27.70;69.30;;;;;;10373912;28;20389;-65
2022/07/18 17:13:45;;;;;;;2.95;1.95;;;27.60;68.20;;;;;;10364905;28;20389;-62
2022/07/18 17:18:46;;;;;;;4.97;2.45;;;27.60;67.30;;;;;;10356181;28;20461;-62
2022/07/18 17:23:47;;;;;;;4.53;2.40;;;27.60;66.40;;;;;;10366495;28;20947;-62
2022/07/18 17:28:49;;;;;;;5.32;2.22;;;27.60;65.80;;;;;;10343454;28;20033;-66
2022/07/18 17:33:50;;;;;;;5.30;2.53;;;27.60;65.80;;;;;;10367340;28;20581;-71
2022/07/18 17:38:51;;;;;;;4.95;2.28;;;27.60;65.60;;;;;;10385169;28;20311;-72
2022/07/18 17:43:52;;;;;;;4.30;2.40;;;27.60;65.40;;;;;;10381588;28;20036;-66
2022/07/18 17:48:53;;;;;;;5.00;2.67;;;27.60;65.50;;;;;;10389623;28;20039;-72
2022/07/18 17:53:54;;;;;;;2.20;1.90;;;27.50;65.70;;;;;;10384722;28;20052;-79
2022/07/18 17:58:55;;;;;;;5.15;2.50;;;27.50;65.80;;;;;;10382182;28;20051;-73
2022/07/18 18:03:56;;;;;;;4.75;2.60;;;27.50;65.30;;;;;;10380417;28;20140;-70
2022/07/18 18:08:57;;;;;;;4.95;2.70;;;27.50;65.50;;;;;;10396587;28;20331;-69
2022/07/18 18:13:58;;;;;;;3.33;2.40;;;27.50;65.50;;;;;;10378638;28;20074;-74
2022/07/18 18:18:59;;;;;;;4.55;2.10;;;27.40;65.60;;;;;;10381097;28;20128;-75
2022/07/18 18:24:00;;;;;;;5.80;2.40;;;27.30;65.50;;;;;;10390869;28;20044;-73
2022/07/18 18:29:01;;;;;;;5.40;2.50;;;27.20;66.60;;;;;;10394221;28;20453;-72
2022/07/18 18:34:02;;;;;;;4.15;2.50;;;27.00;66.80;;;;;;10386626;28;20442;-73
2022/07/18 18:39:03;;;;;;;5.18;2.35;;;27.00;67.70;;;;;;10376910;28;20060;-74
2022/07/18 18:44:04;;;;;;;4.88;2.53;;;26.90;68.20;;;;;;10377344;28;20399;-72
2022/07/18 18:49:05;;;;;;;3.08;1.95;;;26.70;68.80;;;;;;10390669;28;20655;-69
2022/07/18 18:54:06;;;;;;;4.10;1.92;;;26.60;69.80;;;;;;10380756;28;20347;-64
2022/07/18 18:59:08;;;;;;;6.75;2.67;;;26.40;70.60;;;;;;10360130;28;20396;-73
2022/07/18 19:04:09;;;;;;;3.10;2.22;;;26.40;71.70;;;;;;10373459;28;20025;-63
2022/07/18 19:09:11;;;;;;;6.55;2.15;;;26.20;72.10;;;;;;10368926;28;20064;-65
2022/07/18 19:14:12;;;;;;;4.40;2.42;;;26.10;73.10;;;;;;10365072;28;20029;-63
2022/07/18 19:19:13;;;;;;;4.43;2.33;;;25.90;73.80;;;;;;10363551;28;20431;-63
2022/07/18 19:24:14;;;;;;;3.40;2.35;;;25.80;74.40;;;;;;10364471;28;20773;-63
2022/07/18 19:29:15;;;;;;;5.28;2.42;;;25.70;75.00;;;;;;10364914;28;20770;-67
2022/07/18 19:34:15;;;;;;;4.63;2.33;;;25.50;75.50;;;;;;10366943;28;20324;-63
2022/07/18 19:39:17;;;;;;;4.90;2.50;;;25.50;76.30;;;;;;10373388;28;20045;-62
2022/07/18 19:44:18;;;;;;;5.80;2.80;;;25.30;76.90;;;;;;10363957;28;20828;-66
2022/07/18 19:49:18;;;;;;;6.38;3.25;;;25.20;77.40;;;;;;10368758;28;20048;-72
2022/07/18 19:54:19;;;;;;;3.90;2.58;;;25.00;78.10;;;;;;10349618;28;20114;-62
2022/07/18 19:59:20;;;;;;;5.53;3.00;;;24.90;78.30;;;;;;10362656;28;20783;-62
2022/07/18 20:04:20;;;;;;;6.82;2.67;;;24.80;79.20;;;;;;10363247;28;20025;-61
2022/07/18 20:09:21;;;;;;;5.05;2.30;;;24.80;79.00;;;;;;10374259;28;20102;-62
2022/07/18 20:14:22;;;;;;;5.57;2.40;;;24.70;79.20;;;;;;10372313;28;20039;-62
2022/07/18 20:19:23;;;;;;;6.80;3.05;;;24.60;79.60;;;;;;10361111;28;20037;-62
2022/07/18 20:24:24;;;;;;;5.35;2.70;;;24.50;80.00;;;;;;10370134;28;20051;-70
2022/07/18 20:29:24;;;;;;;3.55;2.40;;;24.40;79.80;;;;;;10424964;28;20037;-69
2022/07/18 20:34:25;;;;;;;5.03;2.90;;;24.30;79.40;;;;;;10425085;28;20037;-66
2022/07/18 20:39:26;;;;;;;9.15;3.03;;;24.20;79.40;;;;;;10427476;28;20503;-68
2022/07/18 20:44:26;;;;;;;3.90;2.53;;;24.10;79.70;;;;;;10436437;28;20025;-68
2022/07/18 20:49:27;;;;;;;7.00;3.40;;;24.00;79.80;;;;;;10435411;28;20489;-70
2022/07/18 20:54:28;;;;;;;4.07;3.00;;;24.00;80.50;;;;;;10438637;28;20140;-69
2022/07/18 20:59:29;;;;;;;7.75;3.10;;;23.90;80.10;;;;;;10446264;28;20033;-69
2022/07/18 21:04:29;;;;;;;5.28;3.50;;;23.80;80.60;;;;;;10446110;28;20124;-68
2022/07/18 21:09:30;;;;;;;5.47;3.30;;;23.70;81.00;;;;;;10444380;28;20116;-70
2022/07/18 21:19:50;;;;;;;5.22;2.83;;;23.50;81.90;;;;;;10443378;28;20040;-63
2022/07/18 21:24:51;;;;;;;4.13;3.10;;;23.50;82.20;;;;;;10445998;28;20501;-62
2022/07/18 21:29:52;;;;;;;5.05;3.28;;;23.50;81.90;;;;;;10444787;28;20037;-62
2022/07/18 21:34:53;;;;;;;5.55;2.72;;;23.70;81.50;;;;;;10443168;28;20061;-62
2022/07/18 21:39:53;;;;;;;4.10;2.72;;;23.80;81.10;;;;;;10445272;28;20048;-62
2022/07/18 21:44:55;;;;;;;3.72;3.00;;;23.90;80.70;;;;;;10444531;28;20031;-62
2022/07/18 21:49:56;;;;;;;4.80;2.97;;;24.00;80.50;;;;;;10444076;28;20487;-63
2022/07/18 21:54:58;;;;;;;4.40;2.72;;;24.00;80.20;;;;;;10443015;28;20040;-61
2022/07/18 21:59:59;;;;;;;5.05;2.90;;;24.10;80.10;;;;;;10444370;28;20124;-62
2022/07/18 22:05:00;;;;;;;5.05;2.85;;;24.10;79.90;;;;;;10441108;28;20036;-61
2022/07/18 22:10:00;;;;;;;5.03;2.90;;;24.10;79.80;;;;;;10443259;28;20028;-62
2022/07/18 22:15:01;;;;;;;6.47;2.80;;;24.10;79.70;;;;;;10442698;28;20028;-62
2022/07/18 22:20:03;;;;;;;3.45;2.50;;;24.10;79.60;;;;;;10442378;28;20041;-62
2022/07/18 22:25:04;;;;;;;5.07;2.75;;;24.10;79.60;;;;;;10443420;28;20074;-62
2022/07/18 22:30:08;;;;;;;5.47;3.00;;;24.10;79.60;;;;;;10442881;28;20025;-62
2022/07/18 22:35:09;;;;;;;4.20;2.47;;;24.10;79.60;;;;;;10441992;28;20017;-62
2022/07/18 22:40:11;;;;;;;5.45;2.80;;;24.10;79.60;;;;;;10441543;28;20395;-62
2022/07/18 22:45:12;;;;;;;4.53;2.92;;;24.10;79.60;;;;;;10441006;28;20033;-62
2022/07/18 22:50:13;;;;;;;4.22;2.70;;;24.00;79.50;;;;;;10439094;28;20029;-62
2022/07/18 22:55:15;;;;;;;4.45;2.47;;;24.00;79.50;;;;;;10442280;28;20040;-61
2022/07/18 23:00:16;;;;;;;4.15;2.58;;;24.00;79.50;;;;;;10441792;28;20048;-62
2022/07/18 23:05:23;;;;;;;5.47;2.97;;;24.00;79.50;;;;;;10440467;28;20063;-62
2022/07/18 23:10:26;;;;;;;4.93;2.75;;;24.00;79.50;;;;;;10440961;28;20115;-62
2022/07/18 23:15:29;;;;;;;3.75;2.85;;;23.90;79.40;;;;;;10437445;28;20033;-62
2022/07/18 23:20:30;;;;;;;4.22;2.70;;;23.90;79.40;;;;;;10439584;28;20068;-61
2022/07/18 23:25:31;;;;;;;5.20;2.80;;;23.90;79.40;;;;;;10439917;28;21023;-62
2022/07/18 23:30:32;;;;;;;5.70;3.20;;;23.90;79.50;;;;;;10440710;28;20372;-61
2022/07/18 23:35:33;;;;;;;4.15;2.60;;;23.80;79.50;;;;;;10422887;28;20635;-62
2022/07/18 23:40:33;;;;;;;3.85;2.75;;;23.80;79.50;;;;;;10438837;28;20045;-62
2022/07/18 23:45:34;;;;;;;5.22;2.97;;;23.70;79.50;;;;;;10439381;28;20029;-62
2022/07/18 23:50:35;;;;;;;4.07;2.92;;;23.70;79.50;;;;;;10439236;28;20028;-61
2022/07/18 23:55:36;;;;;;;3.28;2.67;;;23.70;79.60;;;;;;10435084;28;20649;-62
